sensor_id;sensor_type;location;lat;lon;timestamp;pressure;altitude;pressure_sealevel;temperature;humidity
28448;BME280;15675;52.870;-1.416;2023-07-13T00:02:09;100710.19;;;16.40;100.00
28448;BME280;15675;52.870;-1.416;2023-07-13T00:04:34;100714.25;;;16.55;100.00
28448;BME280;15675;52.870;-1.416;2023-07-13T00:07:00;100713.94;;;16.27;100.00
28448;BME280;15675;52.870;-1.416;2023-07-13T00:09:26;100720.88;;;16.29;100.00
28448;BME280;15675;52.870;-1.416;2023-07-13T00:11:54;100704.31;;;16.27;100.00
28448;BME280;15675;52.870;-1.416;2023-07-13T00:14:20;100717.59;;;16.19;100.00
28448;BME280;15675;52.870;-1.416;2023-07-13T00:16:46;100718.25;;;16.31;100.00
28448;BME280;15675;52.870;-1.416;2023-07-13T00:19:13;100714.13;;;16.19;100.00
28448;BME280;15675;52.870;-1.416;2023-07-13T00:21:39;100714.84;;;16.26;100.00
28448;BME280;15675;52.870;-1.416;2023-07-13T00:24:07;100714.31;;;16.08;100.00
28448;BME280;15675;52.870;-1.416;2023-07-13T00:26:33;100707.59;;;16.38;100.00
28448;BME280;15675;52.870;-1.416;2023-07-13T00:28:59;100720.34;;;16.12;100.00
28448;BME280;15675;52.870;-1.416;2023-07-13T00:31:25;100720.19;;;16.21;100.00
28448;BME280;15675;52.870;-1.416;2023-07-13T00:33:51;100713.72;;;15.94;100.00
28448;BME280;15675;52.870;-1.416;2023-07-13T00:36:17;100723.28;;;15.93;100.00
28448;BME280;15675;52.870;-1.416;2023-07-13T00:38:43;100715.66;;;15.82;100.00
28448;BME280;15675;52.870;-1.416;2023-07-13T00:41:09;100709.78;;;15.68;100.00
28448;BME280;15675;52.870;-1.416;2023-07-13T00:43:35;100712.47;;;16.13;100.00
28448;BME280;15675;52.870;-1.416;2023-07-13T00:48:32;100713.03;;;15.84;100.00
28448;BME280;15675;52.870;-1.416;2023-07-13T00:51:00;100716.00;;;15.61;100.00
28448;BME280;15675;52.870;-1.416;2023-07-13T00:53:28;100710.97;;;15.48;100.00
28448;BME280;15675;52.870;-1.416;2023-07-13T00:55:56;100718.19;;;15.34;100.00
28448;BME280;15675;52.870;-1.416;2023-07-13T00:58:23;100719.81;;;15.41;100.00
28448;BME280;15675;52.870;-1.416;2023-07-13T01:00:50;100720.44;;;15.56;100.00
28448;BME280;15675;52.870;-1.416;2023-07-13T01:03:16;100720.03;;;15.80;100.00
28448;BME280;15675;52.870;-1.416;2023-07-13T01:05:42;100721.69;;;15.86;100.00
28448;BME280;15675;52.870;-1.416;2023-07-13T01:08:08;100716.72;;;15.70;100.00
28448;BME280;15675;52.870;-1.416;2023-07-13T01:10:34;100719.31;;;15.72;100.00
28448;BME280;15675;52.870;-1.416;2023-07-13T01:13:10;100714.44;;;15.49;100.00
28448;BME280;15675;52.870;-1.416;2023-07-13T01:15:41;100716.47;;;15.33;100.00
28448;BME280;15675;52.870;-1.416;2023-07-13T01:18:09;100721.44;;;15.48;100.00
28448;BME280;15675;52.870;-1.416;2023-07-13T01:20:36;100723.47;;;15.31;100.00
28448;BME280;15675;52.870;-1.416;2023-07-13T01:23:07;100724.13;;;15.45;100.00
28448;BME280;15675;52.870;-1.416;2023-07-13T01:25:34;100720.06;;;15.26;100.00
28448;BME280;15675;52.870;-1.416;2023-07-13T01:28:02;100721.66;;;15.34;100.00
28448;BME280;15675;52.870;-1.416;2023-07-13T01:30:28;100723.22;;;15.48;100.00
28448;BME280;15675;52.870;-1.416;2023-07-13T01:32:54;100731.78;;;15.58;100.00
28448;BME280;15675;52.870;-1.416;2023-07-13T01:35:19;100722.88;;;15.68;100.00
28448;BME280;15675;52.870;-1.416;2023-07-13T01:37:45;100726.22;;;15.75;100.00
28448;BME280;15675;52.870;-1.416;2023-07-13T01:40:12;100723.78;;;15.65;100.00
28448;BME280;15675;52.870;-1.416;2023-07-13T01:42:37;100730.00;;;15.58;100.00
28448;BME280;15675;52.870;-1.416;2023-07-13T01:45:03;100727.81;;;15.86;100.00
28448;BME280;15675;52.870;-1.416;2023-07-13T01:47:29;100730.34;;;15.91;100.00
28448;BME280;15675;52.870;-1.416;2023-07-13T01:49:57;100731.56;;;15.68;100.00
28448;BME280;15675;52.870;-1.416;2023-07-13T01:52:23;100735.88;;;15.71;100.00
28448;BME280;15675;52.870;-1.416;2023-07-13T01:54:49;100726.22;;;15.75;100.00
28448;BME280;15675;52.870;-1.416;2023-07-13T01:57:14;100725.63;;;15.59;100.00
28448;BME280;15675;52.870;-1.416;2023-07-13T01:59:40;100725.88;;;15.43;100.00
28448;BME280;15675;52.870;-1.416;2023-07-13T02:02:05;100723.25;;;15.43;100.00
28448;BME280;15675;52.870;-1.416;2023-07-13T02:04:31;100716.22;;;15.48;100.00
28448;BME280;15675;52.870;-1.416;2023-07-13T02:06:56;100720.81;;;15.34;100.00
28448;BME280;15675;52.870;-1.416;2023-07-13T02:09:22;100721.50;;;15.45;100.00
28448;BME280;15675;52.870;-1.416;2023-07-13T02:11:47;100723.25;;;15.43;100.00
28448;BME280;15675;52.870;-1.416;2023-07-13T02:14:14;100724.28;;;15.34;100.00
28448;BME280;15675;52.870;-1.416;2023-07-13T02:16:41;100717.56;;;15.18;100.00
28448;BME280;15675;52.870;-1.416;2023-07-13T02:19:07;100718.53;;;15.12;100.00
28448;BME280;15675;52.870;-1.416;2023-07-13T02:21:32;100722.84;;;15.13;100.00
28448;BME280;15675;52.870;-1.416;2023-07-13T02:23:58;100726.56;;;14.98;100.00
28448;BME280;15675;52.870;-1.416;2023-07-13T02:26:26;100722.16;;;15.04;100.00
28448;BME280;15675;52.870;-1.416;2023-07-13T02:28:52;100725.03;;;14.82;100.00
28448;BME280;15675;52.870;-1.416;2023-07-13T02:31:17;100721.28;;;15.01;100.00
28448;BME280;15675;52.870;-1.416;2023-07-13T02:33:44;100727.47;;;14.96;100.00
28448;BME280;15675;52.870;-1.416;2023-07-13T02:36:10;100723.22;;;14.89;100.00
28448;BME280;15675;52.870;-1.416;2023-07-13T02:38:36;100726.78;;;14.83;100.00
28448;BME280;15675;52.870;-1.416;2023-07-13T02:41:04;100724.13;;;14.86;100.00
28448;BME280;15675;52.870;-1.416;2023-07-13T02:43:29;100731.03;;;14.90;100.00
28448;BME280;15675;52.870;-1.416;2023-07-13T02:45:55;100726.09;;;14.70;100.00
28448;BME280;15675;52.870;-1.416;2023-07-13T02:48:21;100731.31;;;14.70;100.00
28448;BME280;15675;52.870;-1.416;2023-07-13T02:50:47;100732.91;;;14.80;100.00
28448;BME280;15675;52.870;-1.416;2023-07-13T02:53:12;100730.34;;;14.77;100.00
28448;BME280;15675;52.870;-1.416;2023-07-13T02:55:38;100727.78;;;14.73;100.00
28448;BME280;15675;52.870;-1.416;2023-07-13T02:58:06;100731.00;;;14.92;100.00
28448;BME280;15675;52.870;-1.416;2023-07-13T03:00:32;100729.16;;;15.00;100.00
28448;BME280;15675;52.870;-1.416;2023-07-13T03:02:57;100728.28;;;15.01;100.00
28448;BME280;15675;52.870;-1.416;2023-07-13T03:05:23;100730.03;;;14.99;100.00
28448;BME280;15675;52.870;-1.416;2023-07-13T03:07:49;100734.63;;;14.83;100.00
28448;BME280;15675;52.870;-1.416;2023-07-13T03:10:14;100728.63;;;14.78;100.00
28448;BME280;15675;52.870;-1.416;2023-07-13T03:12:42;100722.25;;;14.96;100.00
28448;BME280;15675;52.870;-1.416;2023-07-13T03:15:07;100722.38;;;14.87;100.00
28448;BME280;15675;52.870;-1.416;2023-07-13T03:17:33;100721.44;;;14.92;100.00
28448;BME280;15675;52.870;-1.416;2023-07-13T03:19:58;100716.16;;;14.95;100.00
28448;BME280;15675;52.870;-1.416;2023-07-13T03:22:24;100709.44;;;14.77;100.00
28448;BME280;15675;52.870;-1.416;2023-07-13T03:24:49;100717.13;;;14.90;100.00
28448;BME280;15675;52.870;-1.416;2023-07-13T03:27:16;100714.34;;;14.99;100.00
28448;BME280;15675;52.870;-1.416;2023-07-13T03:29:42;100716.84;;;15.08;100.00
28448;BME280;15675;52.870;-1.416;2023-07-13T03:32:08;100709.81;;;15.12;100.00
28448;BME280;15675;52.870;-1.416;2023-07-13T03:34:33;100707.53;;;14.89;100.00
28448;BME280;15675;52.870;-1.416;2023-07-13T03:36:59;100704.13;;;14.82;100.00
28448;BME280;15675;52.870;-1.416;2023-07-13T03:39:24;100715.66;;;14.69;100.00
28448;BME280;15675;52.870;-1.416;2023-07-13T03:41:50;100719.09;;;14.74;100.00
28448;BME280;15675;52.870;-1.416;2023-07-13T03:44:17;100715.25;;;14.99;100.00
28448;BME280;15675;52.870;-1.416;2023-07-13T03:46:43;100723.88;;;15.03;100.00
28448;BME280;15675;52.870;-1.416;2023-07-13T03:49:09;100723.94;;;15.00;100.00
28448;BME280;15675;52.870;-1.416;2023-07-13T03:51:35;100724.81;;;14.99;100.00
28448;BME280;15675;52.870;-1.416;2023-07-13T03:54:00;100717.22;;;14.80;100.00
28448;BME280;15675;52.870;-1.416;2023-07-13T03:56:28;100717.69;;;15.10;100.00
28448;BME280;15675;52.870;-1.416;2023-07-13T03:58:54;100719.69;;;14.93;100.00
28448;BME280;15675;52.870;-1.416;2023-07-13T04:01:21;100723.53;;;14.67;100.00
28448;BME280;15675;52.870;-1.416;2023-07-13T04:03:47;100720.59;;;14.90;100.00
28448;BME280;15675;52.870;-1.416;2023-07-13T04:06:20;100719.78;;;14.83;100.00
28448;BME280;15675;52.870;-1.416;2023-07-13T04:08:49;100720.53;;;14.93;100.00
28448;BME280;15675;52.870;-1.416;2023-07-13T04:11:16;100717.66;;;15.12;100.00
28448;BME280;15675;52.870;-1.416;2023-07-13T04:13:42;100726.34;;;15.14;100.00
28448;BME280;15675;52.870;-1.416;2023-07-13T04:16:08;100726.31;;;15.15;100.00
28448;BME280;15675;52.870;-1.416;2023-07-13T04:18:33;100729.97;;;15.05;100.00
28448;BME280;15675;52.870;-1.416;2023-07-13T04:20:58;100736.44;;;15.37;100.00
28448;BME280;15675;52.870;-1.416;2023-07-13T04:23:24;100740.88;;;15.33;100.00
28448;BME280;15675;52.870;-1.416;2023-07-13T04:25:52;100739.88;;;15.42;100.00
28448;BME280;15675;52.870;-1.416;2023-07-13T04:28:22;100741.41;;;15.54;100.00
28448;BME280;15675;52.870;-1.416;2023-07-13T04:30:49;100755.09;;;15.70;100.00
28448;BME280;15675;52.870;-1.416;2023-07-13T04:33:15;100739.88;;;15.42;100.00
28448;BME280;15675;52.870;-1.416;2023-07-13T04:35:43;100756.84;;;15.69;100.00
28448;BME280;15675;52.870;-1.416;2023-07-13T04:38:09;100754.31;;;15.65;100.00
28448;BME280;15675;52.870;-1.416;2023-07-13T04:40:36;100748.75;;;15.29;100.00
28448;BME280;15675;52.870;-1.416;2023-07-13T04:43:02;100757.97;;;14.97;100.00
28448;BME280;15675;52.870;-1.416;2023-07-13T04:45:28;100762.13;;;15.10;100.00
28448;BME280;15675;52.870;-1.416;2023-07-13T04:47:53;100765.97;;;15.45;100.00
28448;BME280;15675;52.870;-1.416;2023-07-13T04:50:19;100768.53;;;15.47;100.00
28448;BME280;15675;52.870;-1.416;2023-07-13T04:52:51;100767.25;;;15.73;100.00
28448;BME280;15675;52.870;-1.416;2023-07-13T04:55:17;100772.03;;;16.02;100.00
28448;BME280;15675;52.870;-1.416;2023-07-13T04:57:43;100772.06;;;15.99;100.00
28448;BME280;15675;52.870;-1.416;2023-07-13T05:00:09;100767.47;;;16.12;100.00
28448;BME280;15675;52.870;-1.416;2023-07-13T05:02:37;100771.91;;;16.08;100.00
28448;BME280;15675;52.870;-1.416;2023-07-13T05:05:03;100767.84;;;16.38;100.00
28448;BME280;15675;52.870;-1.416;2023-07-13T05:07:29;100772.78;;;16.54;100.00
28448;BME280;15675;52.870;-1.416;2023-07-13T05:09:54;100754.78;;;16.79;100.00
28448;BME280;15675;52.870;-1.416;2023-07-13T05:12:20;100762.84;;;16.70;100.00
28448;BME280;15675;52.870;-1.416;2023-07-13T05:14:45;100770.13;;;16.55;100.00
28448;BME280;15675;52.870;-1.416;2023-07-13T05:17:11;100776.53;;;16.83;100.00
28448;BME280;15675;52.870;-1.416;2023-07-13T05:19:37;100783.41;;;16.46;100.00
28448;BME280;15675;52.870;-1.416;2023-07-13T05:22:03;100785.13;;;16.47;100.00
28448;BME280;15675;52.870;-1.416;2023-07-13T05:24:30;100786.34;;;16.31;100.00
28448;BME280;15675;52.870;-1.416;2023-07-13T05:26:55;100781.88;;;16.78;100.00
28448;BME280;15675;52.870;-1.416;2023-07-13T05:29:21;100784.69;;;17.11;100.00
28448;BME280;15675;52.870;-1.416;2023-07-13T05:31:48;100784.41;;;17.25;100.00
28448;BME280;15675;52.870;-1.416;2023-07-13T05:34:14;100794.66;;;17.36;100.00
28448;BME280;15675;52.870;-1.416;2023-07-13T05:36:40;100793.44;;;17.49;100.00
28448;BME280;15675;52.870;-1.416;2023-07-13T05:39:06;100790.94;;;17.45;100.00
28448;BME280;15675;52.870;-1.416;2023-07-13T05:41:32;100792.38;;;17.20;100.00
28448;BME280;15675;52.870;-1.416;2023-07-13T05:43:57;100792.06;;;17.33;100.00
28448;BME280;15675;52.870;-1.416;2023-07-13T05:46:23;100798.59;;;17.54;100.00
28448;BME280;15675;52.870;-1.416;2023-07-13T05:48:48;100801.22;;;17.91;100.00
28448;BME280;15675;52.870;-1.416;2023-07-13T05:51:15;100805.84;;;18.48;100.00
28448;BME280;15675;52.870;-1.416;2023-07-13T05:53:40;100804.56;;;17.97;100.00
28448;BME280;15675;52.870;-1.416;2023-07-13T05:56:05;100807.66;;;17.76;100.00
28448;BME280;15675;52.870;-1.416;2023-07-13T05:58:31;100819.75;;;18.18;100.00
28448;BME280;15675;52.870;-1.416;2023-07-13T06:01:02;100819.97;;;17.74;100.00
28448;BME280;15675;52.870;-1.416;2023-07-13T06:03:28;100819.09;;;17.74;100.00
28448;BME280;15675;52.870;-1.416;2023-07-13T06:05:54;100828.13;;;17.24;100.00
28448;BME280;15675;52.870;-1.416;2023-07-13T06:08:20;100834.91;;;17.71;100.00
28448;BME280;15675;52.870;-1.416;2023-07-13T06:10:45;100832.97;;;17.79;100.00
28448;BME280;15675;52.870;-1.416;2023-07-13T06:13:11;100840.72;;;18.21;100.00
28448;BME280;15675;52.870;-1.416;2023-07-13T06:15:36;100843.81;;;18.03;100.00
28448;BME280;15675;52.870;-1.416;2023-07-13T06:18:02;100845.34;;;17.74;100.00
28448;BME280;15675;52.870;-1.416;2023-07-13T06:20:28;100846.91;;;17.45;100.00
28448;BME280;15675;52.870;-1.416;2023-07-13T06:22:54;100854.13;;;16.95;100.00
28448;BME280;15675;52.870;-1.416;2023-07-13T06:25:20;100850.31;;;17.47;100.00
28448;BME280;15675;52.870;-1.416;2023-07-13T06:27:46;100857.03;;;17.60;100.00
28448;BME280;15675;52.870;-1.416;2023-07-13T06:30:12;100860.75;;;17.11;100.00
28448;BME280;15675;52.870;-1.416;2023-07-13T06:32:37;100859.59;;;17.64;100.00
28448;BME280;15675;52.870;-1.416;2023-07-13T06:35:03;100861.47;;;17.57;100.00
28448;BME280;15675;52.870;-1.416;2023-07-13T06:37:29;100859.81;;;17.54;100.00
28448;BME280;15675;52.870;-1.416;2023-07-13T06:39:54;100859.69;;;17.59;100.00
28448;BME280;15675;52.870;-1.416;2023-07-13T06:42:20;100859.69;;;17.97;100.00
28448;BME280;15675;52.870;-1.416;2023-07-13T06:44:46;100856.00;;;18.40;100.00
28448;BME280;15675;52.870;-1.416;2023-07-13T06:47:11;100855.25;;;18.00;100.00
28448;BME280;15675;52.870;-1.416;2023-07-13T06:49:37;100857.19;;;17.53;100.00
28448;BME280;15675;52.870;-1.416;2023-07-13T06:52:03;100854.09;;;17.35;100.00
28448;BME280;15675;52.870;-1.416;2023-07-13T06:54:29;100856.25;;;17.94;100.00
28448;BME280;15675;52.870;-1.416;2023-07-13T06:56:55;100853.50;;;17.63;100.00
28448;BME280;15675;52.870;-1.416;2023-07-13T06:59:20;100856.91;;;17.65;100.00
28448;BME280;15675;52.870;-1.416;2023-07-13T07:01:46;100858.81;;;17.58;100.00
28448;BME280;15675;52.870;-1.416;2023-07-13T07:04:11;100864.22;;;17.52;100.00
28448;BME280;15675;52.870;-1.416;2023-07-13T07:06:37;100869.34;;;17.57;100.00
28448;BME280;15675;52.870;-1.416;2023-07-13T07:09:02;100871.13;;;17.56;100.00
28448;BME280;15675;52.870;-1.416;2023-07-13T07:11:28;100870.94;;;17.64;100.00
28448;BME280;15675;52.870;-1.416;2023-07-13T07:13:53;100872.50;;;17.34;100.00
28448;BME280;15675;52.870;-1.416;2023-07-13T07:16:20;100871.78;;;18.04;100.00
28448;BME280;15675;52.870;-1.416;2023-07-13T07:18:46;100864.81;;;18.37;100.00
28448;BME280;15675;52.870;-1.416;2023-07-13T07:21:13;100874.59;;;18.63;100.00
28448;BME280;15675;52.870;-1.416;2023-07-13T07:23:38;100877.91;;;18.04;100.00
28448;BME280;15675;52.870;-1.416;2023-07-13T07:26:04;100872.19;;;17.85;100.00
28448;BME280;15675;52.870;-1.416;2023-07-13T07:28:30;100878.41;;;17.81;100.00
28448;BME280;15675;52.870;-1.416;2023-07-13T07:30:57;100872.63;;;18.06;100.00
28448;BME280;15675;52.870;-1.416;2023-07-13T07:33:24;100879.97;;;17.91;100.00
28448;BME280;15675;52.870;-1.416;2023-07-13T07:35:50;100883.88;;;18.09;100.00
28448;BME280;15675;52.870;-1.416;2023-07-13T07:38:16;100883.81;;;17.75;100.00
28448;BME280;15675;52.870;-1.416;2023-07-13T07:40:42;100879.69;;;18.02;100.00
28448;BME280;15675;52.870;-1.416;2023-07-13T07:43:09;100886.59;;;17.69;100.00
28448;BME280;15675;52.870;-1.416;2023-07-13T07:45:36;100885.50;;;17.77;100.00
28448;BME280;15675;52.870;-1.416;2023-07-13T07:48:04;100882.19;;;18.07;100.00
28448;BME280;15675;52.870;-1.416;2023-07-13T07:50:29;100897.91;;;18.10;100.00
28448;BME280;15675;52.870;-1.416;2023-07-13T07:52:55;100895.00;;;17.83;100.00
28448;BME280;15675;52.870;-1.416;2023-07-13T07:55:22;100894.09;;;17.86;100.00
28448;BME280;15675;52.870;-1.416;2023-07-13T07:57:48;100905.09;;;17.63;100.00
28448;BME280;15675;52.870;-1.416;2023-07-13T08:00:14;100904.22;;;18.01;100.00
28448;BME280;15675;52.870;-1.416;2023-07-13T08:02:40;100902.63;;;18.65;100.00
28448;BME280;15675;52.870;-1.416;2023-07-13T08:05:07;100909.97;;;18.85;100.00
28448;BME280;15675;52.870;-1.416;2023-07-13T08:07:34;100909.78;;;18.25;97.97
28448;BME280;15675;52.870;-1.416;2023-07-13T08:09:59;100905.66;;;18.49;99.03
28448;BME280;15675;52.870;-1.416;2023-07-13T08:12:25;100911.69;;;18.87;100.00
28448;BME280;15675;52.870;-1.416;2023-07-13T08:14:51;100910.78;;;19.20;97.59
28448;BME280;15675;52.870;-1.416;2023-07-13T08:17:23;100911.63;;;19.20;95.38
28448;BME280;15675;52.870;-1.416;2023-07-13T08:19:50;100915.25;;;19.16;95.11
28448;BME280;15675;52.870;-1.416;2023-07-13T08:22:15;100918.97;;;18.76;95.99
28448;BME280;15675;52.870;-1.416;2023-07-13T08:24:41;100911.31;;;18.67;97.21
28448;BME280;15675;52.870;-1.416;2023-07-13T08:27:08;100906.09;;;18.98;93.44
28448;BME280;15675;52.870;-1.416;2023-07-13T08:29:34;100907.13;;;19.24;91.13
28448;BME280;15675;52.870;-1.416;2023-07-13T08:31:59;100913.19;;;18.96;95.16
28448;BME280;15675;52.870;-1.416;2023-07-13T08:34:25;100907.88;;;19.57;95.33
28448;BME280;15675;52.870;-1.416;2023-07-13T08:36:51;100910.28;;;19.65;91.45
28448;BME280;15675;52.870;-1.416;2023-07-13T08:39:16;100902.47;;;19.62;88.32
28448;BME280;15675;52.870;-1.416;2023-07-13T08:41:45;100908.59;;;19.34;86.15
28448;BME280;15675;52.870;-1.416;2023-07-13T08:44:23;100916.56;;;19.00;85.71
28448;BME280;15675;52.870;-1.416;2023-07-13T08:46:53;100906.97;;;19.30;91.32
28448;BME280;15675;52.870;-1.416;2023-07-13T08:49:22;100912.97;;;19.34;88.89
28448;BME280;15675;52.870;-1.416;2023-07-13T08:51:58;100902.13;;;19.44;85.99
28448;BME280;15675;52.870;-1.416;2023-07-13T08:54:55;100906.09;;;19.58;86.90
28448;BME280;15675;52.870;-1.416;2023-07-13T08:57:29;100901.41;;;19.67;87.40
28448;BME280;15675;52.870;-1.416;2023-07-13T08:59:56;100914.41;;;19.16;85.98
28448;BME280;15675;52.870;-1.416;2023-07-13T09:05:13;100913.75;;;18.74;85.05
28448;BME280;15675;52.870;-1.416;2023-07-13T09:10:45;100904.25;;;19.02;87.85
28448;BME280;15675;52.870;-1.416;2023-07-13T09:16:27;100909.47;;;19.63;83.34
28448;BME280;15675;52.870;-1.416;2023-07-13T09:18:58;100908.69;;;19.01;80.65
28448;BME280;15675;52.870;-1.416;2023-07-13T09:21:31;100915.34;;;19.43;79.44
28448;BME280;15675;52.870;-1.416;2023-07-13T09:24:03;100915.88;;;19.54;77.47
28448;BME280;15675;52.870;-1.416;2023-07-13T09:26:34;100915.91;;;20.36;79.34
28448;BME280;15675;52.870;-1.416;2023-07-13T09:29:11;100915.97;;;20.34;76.31
28448;BME280;15675;52.870;-1.416;2023-07-13T09:31:47;100912.22;;;20.15;74.97
28448;BME280;15675;52.870;-1.416;2023-07-13T09:34:15;100910.63;;;19.54;75.53
28448;BME280;15675;52.870;-1.416;2023-07-13T09:36:40;100916.19;;;19.43;75.38
28448;BME280;15675;52.870;-1.416;2023-07-13T09:39:35;100915.88;;;19.54;78.77
28448;BME280;15675;52.870;-1.416;2023-07-13T09:42:18;100907.34;;;19.46;79.54
28448;BME280;15675;52.870;-1.416;2023-07-13T09:47:18;100913.53;;;19.73;75.48
28448;BME280;15675;52.870;-1.416;2023-07-13T09:49:44;100918.50;;;19.54;79.18
28448;BME280;15675;52.870;-1.416;2023-07-13T09:52:15;100919.72;;;19.44;78.51
28448;BME280;15675;52.870;-1.416;2023-07-13T09:54:48;100927.84;;;19.64;79.53
28448;BME280;15675;52.870;-1.416;2023-07-13T09:57:16;100923.97;;;19.76;77.07
28448;BME280;15675;52.870;-1.416;2023-07-13T09:59:47;100919.84;;;19.67;75.02
28448;BME280;15675;52.870;-1.416;2023-07-13T10:02:30;100913.53;;;19.73;75.89
28448;BME280;15675;52.870;-1.416;2023-07-13T10:04:59;100922.97;;;20.35;75.49
28448;BME280;15675;52.870;-1.416;2023-07-13T10:07:26;100922.91;;;20.37;73.67
28448;BME280;15675;52.870;-1.416;2023-07-13T10:09:54;100922.09;;;19.81;75.68
28448;BME280;15675;52.870;-1.416;2023-07-13T10:12:20;100924.78;;;19.78;74.33
28448;BME280;15675;52.870;-1.416;2023-07-13T10:14:51;100917.69;;;20.35;70.08
28448;BME280;15675;52.870;-1.416;2023-07-13T10:17:27;100917.75;;;20.34;72.77
28448;BME280;15675;52.870;-1.416;2023-07-13T10:19:59;100924.41;;;20.44;71.60
28448;BME280;15675;52.870;-1.416;2023-07-13T10:22:54;100928.84;;;20.44;72.25
28448;BME280;15675;52.870;-1.416;2023-07-13T10:25:29;100931.94;;;20.82;71.84
28448;BME280;15675;52.870;-1.416;2023-07-13T10:28:09;100929.91;;;20.63;69.03
28448;BME280;15675;52.870;-1.416;2023-07-13T10:30:40;100930.97;;;20.58;68.10
28448;BME280;15675;52.870;-1.416;2023-07-13T10:33:11;100938.34;;;20.75;69.72
28448;BME280;15675;52.870;-1.416;2023-07-13T10:35:39;100938.25;;;20.51;68.70
28448;BME280;15675;52.870;-1.416;2023-07-13T10:38:11;100932.09;;;20.25;67.56
28448;BME280;15675;52.870;-1.416;2023-07-13T10:40:39;100949.78;;;20.48;69.38
28448;BME280;15675;52.870;-1.416;2023-07-13T10:43:18;100954.22;;;20.73;69.61
28448;BME280;15675;52.870;-1.416;2023-07-13T10:45:47;100945.19;;;20.53;70.65
28448;BME280;15675;52.870;-1.416;2023-07-13T10:48:15;100949.19;;;20.65;74.13
28448;BME280;15675;52.870;-1.416;2023-07-13T10:50:44;100949.50;;;20.56;78.66
28448;BME280;15675;52.870;-1.416;2023-07-13T10:53:21;100938.25;;;20.51;82.13
28448;BME280;15675;52.870;-1.416;2023-07-13T10:58:35;100942.31;;;20.08;83.40
28448;BME280;15675;52.870;-1.416;2023-07-13T11:01:14;100939.69;;;20.34;84.57
28448;BME280;15675;52.870;-1.416;2023-07-13T11:06:37;100926.56;;;20.85;74.79
28448;BME280;15675;52.870;-1.416;2023-07-13T11:17:38;100908.03;;;21.80;65.09
28448;BME280;15675;52.870;-1.416;2023-07-13T11:22:52;100921.19;;;21.59;64.46
28448;BME280;15675;52.870;-1.416;2023-07-13T11:28:06;100934.56;;;20.03;67.31
28448;BME280;15675;52.870;-1.416;2023-07-13T11:30:37;100923.81;;;20.09;69.21
28448;BME280;15675;52.870;-1.416;2023-07-13T11:36:16;100939.84;;;19.45;69.58
28448;BME280;15675;52.870;-1.416;2023-07-13T11:39:04;100951.34;;;19.41;76.53
28448;BME280;15675;52.870;-1.416;2023-07-13T11:41:57;100959.78;;;18.91;81.76
28448;BME280;15675;52.870;-1.416;2023-07-13T11:44:24;100951.81;;;19.55;88.57
28448;BME280;15675;52.870;-1.416;2023-07-13T11:46:53;100949.22;;;19.83;90.01
28448;BME280;15675;52.870;-1.416;2023-07-13T11:49:20;100935.75;;;20.48;92.64
28448;BME280;15675;52.870;-1.416;2023-07-13T11:51:46;100947.38;;;20.93;99.44
28448;BME280;15675;52.870;-1.416;2023-07-13T11:54:23;100946.94;;;21.29;99.41
28448;BME280;15675;52.870;-1.416;2023-07-13T11:56:50;100945.66;;;21.39;100.00
28448;BME280;15675;52.870;-1.416;2023-07-13T11:59:16;100945.44;;;21.45;94.18
28448;BME280;15675;52.870;-1.416;2023-07-13T12:01:46;100935.38;;;21.57;88.05
28448;BME280;15675;52.870;-1.416;2023-07-13T12:04:34;100922.53;;;21.92;91.63
28448;BME280;15675;52.870;-1.416;2023-07-13T12:07:14;100925.63;;;21.33;78.48
28448;BME280;15675;52.870;-1.416;2023-07-13T12:09:40;100918.69;;;21.78;79.89
28448;BME280;15675;52.870;-1.416;2023-07-13T12:12:12;100919.66;;;21.53;78.39
28448;BME280;15675;52.870;-1.416;2023-07-13T12:14:38;100916.19;;;21.51;73.72
28448;BME280;15675;52.870;-1.416;2023-07-13T12:17:22;100906.25;;;21.34;73.80
28448;BME280;15675;52.870;-1.416;2023-07-13T12:19:48;100911.00;;;21.48;73.52
28448;BME280;15675;52.870;-1.416;2023-07-13T12:22:16;100907.75;;;21.42;73.16
28448;BME280;15675;52.870;-1.416;2023-07-13T12:24:43;100894.47;;;21.67;69.64
28448;BME280;15675;52.870;-1.416;2023-07-13T12:27:25;100893.16;;;21.99;71.14
28448;BME280;15675;52.870;-1.416;2023-07-13T12:30:00;100894.88;;;22.00;71.40
28448;BME280;15675;52.870;-1.416;2023-07-13T12:32:27;100887.75;;;22.02;68.46
28448;BME280;15675;52.870;-1.416;2023-07-13T12:34:55;100885.56;;;21.69;65.54
28448;BME280;15675;52.870;-1.416;2023-07-13T12:37:22;100885.03;;;22.04;68.70
28448;BME280;15675;52.870;-1.416;2023-07-13T12:39:49;100885.38;;;21.52;66.52
28448;BME280;15675;52.870;-1.416;2023-07-13T12:42:19;100875.59;;;21.98;63.10
28448;BME280;15675;52.870;-1.416;2023-07-13T12:44:53;100878.31;;;22.17;64.72
28448;BME280;15675;52.870;-1.416;2023-07-13T12:47:20;100873.00;;;21.97;63.88
28448;BME280;15675;52.870;-1.416;2023-07-13T12:49:54;100873.88;;;21.97;64.02
28448;BME280;15675;52.870;-1.416;2023-07-13T12:52:33;100868.25;;;21.38;61.41
28448;BME280;15675;52.870;-1.416;2023-07-13T12:55:11;100868.00;;;21.91;64.14
28448;BME280;15675;52.870;-1.416;2023-07-13T13:00:25;100861.31;;;22.02;61.85
28448;BME280;15675;52.870;-1.416;2023-07-13T13:02:54;100861.25;;;22.24;61.83
28448;BME280;15675;52.870;-1.416;2023-07-13T13:05:21;100874.31;;;22.50;64.98
28448;BME280;15675;52.870;-1.416;2023-07-13T13:07:49;100857.47;;;22.52;59.48
28448;BME280;15675;52.870;-1.416;2023-07-13T13:10:15;100855.41;;;22.18;58.48
28448;BME280;15675;52.870;-1.416;2023-07-13T13:12:41;100858.22;;;22.13;59.71
28448;BME280;15675;52.870;-1.416;2023-07-13T13:15:10;100860.56;;;22.21;60.48
28448;BME280;15675;52.870;-1.416;2023-07-13T13:17:39;100861.75;;;21.92;61.30